Time;durP1;ratioP1;P1;durP2;ratioP2;P2;SDS_P1;SDS_P2;PMS_P1;PMS_P2;Temp;Humidity;BMP_temperature;BMP_pressure;BME280_temperature;BME280_humidity;BME280_pressure;Samples;Min_cycle;Max_cycle;Signal;HPM_P1;HPM_P2
2023/05/21 00:00:50;;;;;;;3.28;2.60;;;18.80;75.00;;;;;;5117715;28;20122;-76
2023/05/21 00:03:16;;;;;;;3.05;1.67;;;18.80;75.10;;;;;;5117901;28;20066;-76
2023/05/21 00:05:43;;;;;;;4.35;2.08;;;18.80;74.80;;;;;;5099656;28;20046;-75
2023/05/21 00:08:10;;;;;;;2.70;2.00;;;18.70;75.00;;;;;;5118115;28;20069;-74
2023/05/21 00:10:35;;;;;;;2.97;1.95;;;18.70;75.00;;;;;;5118089;28;20101;-75
2023/05/21 00:13:01;;;;;;;5.25;1.92;;;18.70;74.90;;;;;;5117677;28;20132;-76
2023/05/21 00:15:27;;;;;;;3.03;2.10;;;18.70;75.00;;;;;;5117762;28;20036;-75
2023/05/21 00:17:52;;;;;;;3.30;2.20;;;18.70;75.10;;;;;;5099464;28;20073;-76
2023/05/21 00:20:18;;;;;;;7.10;2.50;;;18.70;75.10;;;;;;5099511;28;20061;-75
2023/05/21 00:22:43;;;;;;;5.55;2.45;;;18.60;75.60;;;;;;5117761;28;20099;-75
2023/05/21 00:25:10;;;;;;;4.80;2.20;;;18.60;75.70;;;;;;5099460;28;20031;-75
2023/05/21 00:27:36;;;;;;;5.20;2.38;;;18.60;75.60;;;;;;5099339;28;20024;-75
2023/05/21 00:30:03;;;;;;;2.33;1.83;;;18.60;75.60;;;;;;5099470;28;20028;-75
2023/05/21 00:32:28;;;;;;;4.47;2.08;;;18.50;75.70;;;;;;5098826;28;20031;-76
2023/05/21 00:34:55;;;;;;;4.00;1.80;;;18.40;76.00;;;;;;5099119;28;20042;-75
2023/05/21 00:37:20;;;;;;;3.58;2.25;;;18.40;75.90;;;;;;5082374;28;20380;-75
2023/05/21 00:39:46;;;;;;;2.50;2.10;;;18.40;76.10;;;;;;5117737;28;20027;-75
2023/05/21 00:42:16;;;;;;;2.63;1.95;;;18.40;76.50;;;;;;5099125;28;20361;-75
2023/05/21 00:44:44;;;;;;;4.50;1.98;;;18.40;76.50;;;;;;5117328;28;20023;-76
2023/05/21 00:47:12;;;;;;;2.80;1.85;;;18.40;76.50;;;;;;5117325;28;20361;-75
2023/05/21 00:49:37;;;;;;;4.28;1.98;;;18.40;76.80;;;;;;5117303;28;20038;-75
2023/05/21 00:52:04;;;;;;;4.03;2.20;;;18.40;76.80;;;;;;5099109;28;20019;-75
2023/05/21 00:54:30;;;;;;;3.40;2.60;;;18.40;76.70;;;;;;5117186;28;20055;-75
2023/05/21 00:56:56;;;;;;;2.45;1.85;;;18.50;77.00;;;;;;5116964;28;20467;-75
2023/05/21 00:59:23;;;;;;;3.35;2.33;;;18.50;77.00;;;;;;5081918;28;20380;-75
2023/05/21 01:01:54;;;;;;;4.70;2.15;;;18.50;76.70;;;;;;5116320;28;20114;-76
2023/05/21 01:04:25;;;;;;;2.60;1.80;;;18.40;76.70;;;;;;5117090;28;20079;-75
2023/05/21 01:06:52;;;;;;;3.30;1.63;;;18.40;76.90;;;;;;5116154;28;20102;-75
2023/05/21 01:09:18;;;;;;;3.28;2.15;;;18.30;77.00;;;;;;5098630;28;20028;-75
2023/05/21 01:11:47;;;;;;;2.38;1.77;;;18.30;77.10;;;;;;5098558;28;20043;-75
2023/05/21 01:14:15;;;;;;;3.15;1.98;;;18.30;77.40;;;;;;5116869;28;20024;-78
2023/05/21 01:16:45;;;;;;;3.67;1.83;;;18.20;77.80;;;;;;5116816;28;20019;-78
2023/05/21 01:19:14;;;;;;;3.75;2.45;;;18.10;77.90;;;;;;5098367;28;20421;-78
2023/05/21 01:21:49;;;;;;;4.28;2.92;;;18.10;78.00;;;;;;5098390;28;20425;-78
2023/05/21 01:24:15;;;;;;;2.92;1.90;;;18.10;78.30;;;;;;5098365;28;20027;-78
2023/05/21 01:26:42;;;;;;;2.70;2.10;;;18.10;78.30;;;;;;5116318;28;20024;-78
2023/05/21 01:29:12;;;;;;;3.88;1.83;;;18.10;78.50;;;;;;5116322;28;20038;-78
2023/05/21 01:31:57;;;;;;;2.65;1.90;;;18.10;78.40;;;;;;5097753;28;20104;-78
2023/05/21 01:34:39;;;;;;;3.22;2.15;;;18.10;78.40;;;;;;5116363;28;20161;-78
2023/05/21 01:37:56;;;;;;;2.65;1.83;;;18.10;78.30;;;;;;5115925;28;20047;-78
2023/05/21 01:40:42;;;;;;;2.90;1.95;;;18.20;78.20;;;;;;5109478;28;20063;-78
2023/05/21 01:43:09;;;;;;;4.20;1.85;;;18.10;78.40;;;;;;5116411;28;20055;-78
2023/05/21 01:45:40;;;;;;;2.67;2.30;;;18.00;78.50;;;;;;5116161;28;20027;-78
2023/05/21 01:48:08;;;;;;;3.05;2.03;;;18.10;78.90;;;;;;5116292;28;20114;-78
2023/05/21 01:50:34;;;;;;;2.50;2.20;;;18.00;78.90;;;;;;5115864;28;20118;-78
2023/05/21 01:53:02;;;;;;;2.60;1.90;;;18.10;79.00;;;;;;5097684;28;20038;-78
2023/05/21 01:55:29;;;;;;;4.05;2.13;;;18.10;79.00;;;;;;5116250;28;20031;-78
2023/05/21 01:57:55;;;;;;;4.45;2.00;;;18.10;79.00;;;;;;5116197;28;20121;-78
2023/05/21 02:00:24;;;;;;;5.13;2.22;;;18.10;79.10;;;;;;5115185;28;20118;-79
2023/05/21 02:02:50;;;;;;;3.08;2.72;;;18.20;79.10;;;;;;5115244;28;20051;-77
2023/05/21 02:05:16;;;;;;;3.78;2.30;;;18.10;78.90;;;;;;5115812;28;20086;-78
2023/05/21 02:07:44;;;;;;;3.92;2.50;;;18.00;79.20;;;;;;5097309;28;20067;-78
2023/05/21 02:10:10;;;;;;;2.83;2.17;;;18.10;79.40;;;;;;5097734;28;20054;-78
2023/05/21 02:12:36;;;;;;;4.82;2.42;;;18.00;79.40;;;;;;5115788;28;20028;-78
2023/05/21 02:15:02;;;;;;;3.72;2.13;;;18.00;79.60;;;;;;5114920;28;20361;-78
2023/05/21 02:17:32;;;;;;;5.65;2.63;;;17.90;79.60;;;;;;5097185;27;20066;-78
2023/05/21 02:20:11;;;;;;;3.78;2.30;;;18.00;79.70;;;;;;5115303;28;20034;-78
2023/05/21 02:22:42;;;;;;;5.03;2.47;;;18.00;79.90;;;;;;5098580;28;20030;-78
2023/05/21 02:25:09;;;;;;;3.28;2.42;;;17.90;79.80;;;;;;5115499;28;20024;-78
2023/05/21 02:27:36;;;;;;;3.47;2.20;;;18.00;79.80;;;;;;5097045;28;20032;-77
2023/05/21 02:30:22;;;;;;;3.47;2.13;;;18.10;79.80;;;;;;5080213;28;20054;-78
2023/05/21 02:32:48;;;;;;;2.53;2.20;;;18.10;80.00;;;;;;5112257;28;20110;-78
2023/05/21 02:35:14;;;;;;;2.30;2.10;;;18.10;79.90;;;;;;5115256;28;20474;-78
2023/05/21 02:37:42;;;;;;;3.00;2.47;;;18.10;80.00;;;;;;5097005;28;20055;-78
2023/05/21 02:40:08;;;;;;;4.82;2.47;;;18.10;79.80;;;;;;5080294;28;20028;-79
2023/05/21 02:42:35;;;;;;;4.57;2.20;;;18.10;79.80;;;;;;5096739;28;20476;-78
2023/05/21 02:45:01;;;;;;;4.18;2.45;;;18.10;79.80;;;;;;5115038;28;20023;-78
2023/05/21 02:47:27;;;;;;;4.55;2.70;;;18.00;80.10;;;;;;5096659;28;20031;-78
2023/05/21 02:49:53;;;;;;;4.50;2.75;;;18.00;80.30;;;;;;5096862;28;20055;-79
2023/05/21 02:52:22;;;;;;;4.75;2.63;;;17.90;80.40;;;;;;5114887;28;20023;-79
2023/05/21 02:54:48;;;;;;;6.53;3.25;;;17.90;80.70;;;;;;5114547;28;20023;-78
2023/05/21 02:57:13;;;;;;;3.63;2.60;;;17.80;80.90;;;;;;5096673;28;20490;-78
2023/05/21 02:59:39;;;;;;;8.70;2.65;;;17.70;81.10;;;;;;5096511;28;20027;-78
2023/05/21 03:02:05;;;;;;;3.88;2.40;;;17.70;81.20;;;;;;5114287;28;20114;-78
2023/05/21 03:04:31;;;;;;;4.47;2.78;;;17.70;81.30;;;;;;5096400;28;20047;-78
2023/05/21 03:07:00;;;;;;;2.83;2.20;;;17.80;81.40;;;;;;5096587;28;20019;-78
2023/05/21 03:09:26;;;;;;;3.55;2.22;;;17.80;81.20;;;;;;5114358;28;20027;-76
2023/05/21 03:11:52;;;;;;;3.28;2.50;;;17.90;81.20;;;;;;5114272;28;20115;-75
2023/05/21 03:14:18;;;;;;;4.05;2.60;;;17.90;81.20;;;;;;5114679;28;20036;-75
2023/05/21 03:16:43;;;;;;;5.30;2.80;;;17.90;81.20;;;;;;5096644;28;20031;-75
2023/05/21 03:19:11;;;;;;;2.63;1.95;;;17.90;81.20;;;;;;5095914;28;20123;-75
2023/05/21 03:21:36;;;;;;;3.30;2.40;;;17.80;81.40;;;;;;5079159;28;20044;-75
2023/05/21 03:24:04;;;;;;;5.20;3.00;;;17.90;81.50;;;;;;5114464;28;20520;-75
2023/05/21 03:26:30;;;;;;;4.85;2.88;;;17.90;81.30;;;;;;5096060;28;20112;-75
2023/05/21 03:28:56;;;;;;;3.42;2.80;;;17.90;81.20;;;;;;5095922;28;20093;-75
2023/05/21 03:31:23;;;;;;;3.78;2.85;;;17.80;81.50;;;;;;5113182;28;20031;-76
2023/05/21 03:33:50;;;;;;;3.05;2.00;;;17.80;81.70;;;;;;5114191;28;20038;-75
2023/05/21 03:36:16;;;;;;;5.13;3.47;;;17.80;81.60;;;;;;5114180;28;20028;-75
2023/05/21 03:38:41;;;;;;;3.67;3.38;;;17.90;81.70;;;;;;5079155;28;20030;-75
2023/05/21 03:41:07;;;;;;;4.00;2.90;;;17.80;81.90;;;;;;5113802;28;20518;-75
2023/05/21 03:43:33;;;;;;;2.97;2.33;;;17.70;82.00;;;;;;5095634;28;20502;-75
2023/05/21 03:45:58;;;;;;;5.10;2.60;;;17.80;82.10;;;;;;5095855;28;20118;-75
2023/05/21 03:48:24;;;;;;;4.03;2.58;;;17.80;82.00;;;;;;5113707;28;20035;-75
2023/05/21 03:50:50;;;;;;;3.88;2.42;;;17.90;81.90;;;;;;5114006;28;20036;-75
2023/05/21 03:53:16;;;;;;;2.90;2.55;;;17.80;81.90;;;;;;5095706;28;20529;-75
2023/05/21 03:55:41;;;;;;;3.35;2.40;;;17.90;82.00;;;;;;5078613;28;20547;-75
2023/05/21 03:58:08;;;;;;;5.05;2.92;;;17.90;82.00;;;;;;5095370;28;20028;-75
2023/05/21 04:00:36;;;;;;;8.13;3.05;;;17.90;82.00;;;;;;5095804;28;20035;-75
2023/05/21 04:03:05;;;;;;;3.95;2.58;;;17.80;82.20;;;;;;5095507;28;20031;-76
2023/05/21 04:05:32;;;;;;;4.40;2.20;;;17.80;82.30;;;;;;5096420;28;20463;-77
2023/05/21 04:07:58;;;;;;;6.32;3.20;;;17.80;82.40;;;;;;5095602;28;20058;-76
2023/05/21 04:10:25;;;;;;;4.82;3.05;;;17.80;82.60;;;;;;5113587;28;20119;-77
2023/05/21 04:12:51;;;;;;;3.75;3.17;;;17.70;82.90;;;;;;5095553;28;20065;-76
2023/05/21 04:15:18;;;;;;;2.88;2.33;;;17.60;83.30;;;;;;5113440;28;20051;-76
2023/05/21 04:17:44;;;;;;;3.47;2.42;;;17.50;83.40;;;;;;5095725;28;20107;-76
2023/05/21 04:20:12;;;;;;;4.03;2.85;;;17.60;83.50;;;;;;5113647;28;20043;-76
2023/05/21 04:22:38;;;;;;;5.70;3.58;;;17.70;83.40;;;;;;5078889;28;20035;-76
2023/05/21 04:25:04;;;;;;;3.30;2.63;;;17.70;83.60;;;;;;5113948;28;20119;-76
2023/05/21 04:27:30;;;;;;;5.47;3.15;;;17.60;83.70;;;;;;5113908;28;20020;-76
2023/05/21 04:29:56;;;;;;;6.25;3.05;;;17.60;83.70;;;;;;5095223;28;20031;-76
2023/05/21 04:32:22;;;;;;;3.33;2.85;;;17.60;83.80;;;;;;5095072;28;20055;-77
2023/05/21 04:34:48;;;;;;;3.33;2.67;;;17.60;83.90;;;;;;5095193;28;20126;-76
2023/05/21 04:37:16;;;;;;;6.65;2.60;;;17.60;84.20;;;;;;5113567;28;20063;-76
2023/05/21 04:39:42;;;;;;;3.88;3.42;;;17.60;84.30;;;;;;5095252;28;20032;-76
2023/05/21 04:42:09;;;;;;;6.70;3.38;;;17.60;84.40;;;;;;5079571;28;20035;-76
2023/05/21 04:44:36;;;;;;;5.45;2.95;;;17.60;84.50;;;;;;5099079;28;20085;-77
2023/05/21 04:47:02;;;;;;;3.90;2.40;;;17.60;84.60;;;;;;5117360;28;20058;-76
2023/05/21 04:49:28;;;;;;;4.68;3.33;;;17.60;84.50;;;;;;5098846;28;20051;-76
2023/05/21 04:51:55;;;;;;;3.45;3.15;;;17.60;84.80;;;;;;5117176;28;20038;-76
2023/05/21 04:54:21;;;;;;;6.55;3.63;;;17.60;85.00;;;;;;5117221;28;20107;-76
2023/05/21 04:56:46;;;;;;;4.03;2.60;;;17.50;85.60;;;;;;5116796;28;20070;-77
2023/05/21 04:59:13;;;;;;;4.38;3.42;;;17.40;85.80;;;;;;5081685;28;20443;-77
2023/05/21 05:01:38;;;;;;;5.00;4.03;;;17.40;85.80;;;;;;5098455;28;20039;-76
2023/05/21 05:04:04;;;;;;;5.00;3.38;;;17.40;86.00;;;;;;5098617;28;20056;-76
2023/05/21 05:06:30;;;;;;;4.57;2.97;;;17.40;86.10;;;;;;5116844;28;20367;-77
2023/05/21 05:08:56;;;;;;;5.97;3.30;;;17.50;86.30;;;;;;5116631;28;20023;-76
2023/05/21 05:11:21;;;;;;;4.05;3.08;;;17.40;86.50;;;;;;5116543;28;20031;-76
2023/05/21 05:13:47;;;;;;;3.72;2.95;;;17.40;86.60;;;;;;5081519;28;20043;-76
2023/05/21 05:16:16;;;;;;;4.50;3.22;;;17.40;86.60;;;;;;5116670;28;20027;-76
2023/05/21 05:18:41;;;;;;;4.93;3.15;;;17.40;86.50;;;;;;5081911;28;20028;-76
2023/05/21 05:21:07;;;;;;;4.97;3.92;;;17.50;86.90;;;;;;5098236;28;20391;-77
2023/05/21 05:23:33;;;;;;;4.20;3.50;;;17.30;87.40;;;;;;5115963;28;20024;-76
2023/05/21 05:25:59;;;;;;;4.47;3.50;;;17.20;87.80;;;;;;5098354;28;20028;-76
2023/05/21 05:28:24;;;;;;;6.60;3.67;;;17.20;88.00;;;;;;5098270;28;20521;-76
2023/05/21 05:30:50;;;;;;;5.10;2.83;;;17.20;88.30;;;;;;5098217;28;20043;-76
2023/05/21 05:33:16;;;;;;;3.97;3.10;;;17.20;88.50;;;;;;5080700;28;20489;-77
2023/05/21 05:35:41;;;;;;;6.65;3.42;;;17.20;88.50;;;;;;5116074;28;20110;-76
2023/05/21 05:38:07;;;;;;;5.07;3.42;;;17.20;88.60;;;;;;5116324;28;20028;-76
2023/05/21 05:40:33;;;;;;;4.90;3.50;;;17.30;88.60;;;;;;5115931;28;20108;-77
2023/05/21 05:42:59;;;;;;;4.20;3.33;;;17.30;88.60;;;;;;5080966;28;20534;-76
2023/05/21 05:45:25;;;;;;;3.33;2.53;;;17.30;88.80;;;;;;5097928;28;20460;-76
2023/05/21 05:47:51;;;;;;;4.75;3.53;;;17.40;88.60;;;;;;5115987;28;20049;-76
2023/05/21 05:50:17;;;;;;;6.28;4.03;;;17.40;88.90;;;;;;5098022;28;20467;-76
2023/05/21 05:52:42;;;;;;;6.22;3.90;;;17.30;89.20;;;;;;5115402;28;20039;-77
2023/05/21 05:55:10;;;;;;;8.38;4.30;;;17.20;89.80;;;;;;5097839;28;20463;-76
2023/05/21 05:57:36;;;;;;;6.10;3.80;;;17.10;90.00;;;;;;5116286;28;20118;-77
2023/05/21 06:00:03;;;;;;;4.80;3.03;;;17.10;90.00;;;;;;5097207;28;20055;-77
2023/05/21 06:02:29;;;;;;;5.63;3.85;;;17.20;90.10;;;;;;5097431;28;20035;-76
2023/05/21 06:04:54;;;;;;;6.15;4.15;;;17.20;90.10;;;;;;5097341;28;20399;-76
2023/05/21 06:07:20;;;;;;;6.03;4.20;;;17.10;90.30;;;;;;5115795;28;20384;-76
2023/05/21 06:09:46;;;;;;;10.65;3.88;;;17.10;90.40;;;;;;5097165;28;20042;-77
2023/05/21 06:12:14;;;;;;;6.25;3.83;;;17.10;90.50;;;;;;5115738;28;20059;-76
2023/05/21 06:14:40;;;;;;;6.78;2.88;;;17.10;90.60;;;;;;5080916;28;20126;-76
2023/05/21 06:17:06;;;;;;;5.93;3.33;;;17.10;90.60;;;;;;5097622;28;20053;-76
2023/05/21 06:19:32;;;;;;;6.10;4.18;;;17.30;90.50;;;;;;5097157;28;20027;-76
2023/05/21 06:21:57;;;;;;;5.65;4.28;;;17.30;90.50;;;;;;5097134;28;20036;-76
2023/05/21 06:24:23;;;;;;;5.30;3.28;;;17.20;90.50;;;;;;5097029;28;20028;-77
2023/05/21 06:26:49;;;;;;;8.10;3.80;;;17.20;90.70;;;;;;5080494;28;20128;-76
2023/05/21 06:29:15;;;;;;;4.78;4.28;;;17.30;90.80;;;;;;5080130;28;20031;-76
2023/05/21 06:31:42;;;;;;;3.55;3.20;;;17.30;90.90;;;;;;5079747;28;20205;-77
2023/05/21 06:34:07;;;;;;;6.13;3.70;;;17.30;90.80;;;;;;5096835;28;20442;-76
2023/05/21 06:36:33;;;;;;;4.07;3.35;;;17.40;90.70;;;;;;5114895;28;20055;-76
2023/05/21 06:38:59;;;;;;;7.72;4.03;;;17.50;90.60;;;;;;5114992;28;20529;-76
2023/05/21 06:41:25;;;;;;;6.15;3.20;;;17.60;90.60;;;;;;5114766;28;20495;-76
2023/05/21 06:43:51;;;;;;;8.23;4.60;;;17.60;90.60;;;;;;5114887;28;20030;-77
2023/05/21 06:46:17;;;;;;;8.32;4.50;;;17.50;90.80;;;;;;5096597;28;20110;-74
2023/05/21 06:48:43;;;;;;;7.65;3.80;;;17.50;90.90;;;;;;5096550;28;20039;-77
2023/05/21 06:51:08;;;;;;;5.88;4.70;;;17.50;90.90;;;;;;5114585;28;20039;-77
2023/05/21 06:53:34;;;;;;;7.30;4.82;;;17.60;90.90;;;;;;5079760;28;20043;-76
2023/05/21 06:56:00;;;;;;;5.03;3.45;;;17.70;91.00;;;;;;5096547;28;20464;-76
2023/05/21 06:58:29;;;;;;;5.07;4.05;;;17.80;91.00;;;;;;5114559;28;20063;-76
2023/05/21 07:00:59;;;;;;;8.93;4.68;;;17.90;90.80;;;;;;5114576;28;20369;-77
2023/05/21 07:03:25;;;;;;;6.00;4.18;;;18.00;90.70;;;;;;5114105;28;20055;-76
2023/05/21 07:05:52;;;;;;;7.10;4.70;;;18.00;90.80;;;;;;5095672;28;20031;-77
2023/05/21 07:08:18;;;;;;;9.52;4.32;;;18.20;90.70;;;;;;5114921;28;20020;-76
2023/05/21 07:10:45;;;;;;;9.93;4.90;;;18.20;90.70;;;;;;5079323;28;20035;-76
2023/05/21 07:13:11;;;;;;;6.65;4.50;;;18.20;90.60;;;;;;5096535;28;20049;-77
2023/05/21 07:15:37;;;;;;;6.68;4.60;;;18.10;90.80;;;;;;5114177;28;20027;-76
2023/05/21 07:18:02;;;;;;;6.43;4.50;;;18.20;91.10;;;;;;5096050;28;20079;-77
2023/05/21 07:20:28;;;;;;;8.35;4.60;;;18.20;90.70;;;;;;5114502;28;20460;-76
2023/05/21 07:22:54;;;;;;;5.82;4.93;;;18.10;90.50;;;;;;5113911;28;20114;-77
2023/05/21 07:25:20;;;;;;;8.88;4.70;;;18.20;90.60;;;;;;5095785;28;20028;-76
2023/05/21 07:27:45;;;;;;;7.28;4.57;;;18.20;90.60;;;;;;5095944;28;20035;-77
2023/05/21 07:30:13;;;;;;;5.07;4.40;;;18.20;91.10;;;;;;5095993;28;20055;-76
2023/05/21 07:32:38;;;;;;;6.53;4.55;;;18.20;90.80;;;;;;5078711;28;20034;-76
2023/05/21 07:35:05;;;;;;;7.53;4.68;;;18.20;90.90;;;;;;5113733;28;20031;-76
2023/05/21 07:37:31;;;;;;;6.63;4.72;;;18.40;90.80;;;;;;5114181;28;20028;-77
2023/05/21 07:39:59;;;;;;;6.88;4.65;;;18.50;90.80;;;;;;5095747;28;20169;-76
2023/05/21 07:42:25;;;;;;;13.02;5.13;;;18.50;90.50;;;;;;5079130;28;20028;-76
2023/05/21 07:44:51;;;;;;;6.72;4.55;;;18.50;90.50;;;;;;5113796;28;20039;-77
2023/05/21 07:47:17;;;;;;;14.20;6.40;;;18.70;90.50;;;;;;5095826;28;20024;-77
2023/05/21 07:49:43;;;;;;;7.95;4.53;;;18.80;90.30;;;;;;5095843;28;20479;-77
2023/05/21 07:52:08;;;;;;;8.65;5.40;;;18.80;90.20;;;;;;5078699;28;20081;-77
2023/05/21 07:54:34;;;;;;;8.40;4.80;;;18.90;89.80;;;;;;5095851;28;20485;-76
2023/05/21 07:57:03;;;;;;;9.45;5.03;;;18.90;90.00;;;;;;5078635;28;20491;-77
2023/05/21 07:59:28;;;;;;;7.85;5.22;;;19.00;90.00;;;;;;5095909;28;20028;-76
2023/05/21 08:01:54;;;;;;;9.98;5.80;;;19.10;89.80;;;;;;5095327;28;20495;-77
2023/05/21 08:04:20;;;;;;;9.75;5.50;;;19.10;90.10;;;;;;5113827;28;20047;-76
2023/05/21 08:06:47;;;;;;;10.00;5.20;;;19.00;89.60;;;;;;5078856;28;20050;-77
2023/05/21 08:09:13;;;;;;;11.43;5.32;;;18.90;89.90;;;;;;5113854;28;20062;-77
2023/05/21 08:11:38;;;;;;;7.10;5.68;;;18.90;90.20;;;;;;5113733;28;20059;-77
2023/05/21 08:14:04;;;;;;;5.35;4.18;;;18.90;90.30;;;;;;5095423;28;20031;-77
2023/05/21 08:16:30;;;;;;;8.23;5.60;;;19.00;90.10;;;;;;5115713;28;20439;-77
2023/05/21 08:18:56;;;;;;;10.77;6.10;;;19.20;90.00;;;;;;5118001;28;20032;-76
2023/05/21 08:21:21;;;;;;;8.98;5.85;;;19.20;89.60;;;;;;5117929;28;20373;-77
2023/05/21 08:23:47;;;;;;;8.52;5.88;;;19.30;89.40;;;;;;5117460;28;20479;-77
2023/05/21 08:26:15;;;;;;;8.48;5.55;;;19.30;89.80;;;;;;5082687;28;20572;-77
2023/05/21 08:28:41;;;;;;;10.52;5.22;;;19.50;89.40;;;;;;5099375;28;20028;-77
2023/05/21 08:31:06;;;;;;;9.68;5.55;;;19.60;89.40;;;;;;5099399;28;20032;-77
2023/05/21 08:33:37;;;;;;;10.25;5.30;;;19.80;89.40;;;;;;5117123;28;20066;-76
2023/05/21 08:36:05;;;;;;;9.20;5.55;;;19.90;88.90;;;;;;5117798;28;20027;-77
2023/05/21 08:38:31;;;;;;;5.47;4.60;;;20.00;89.30;;;;;;5082216;28;20028;-76
2023/05/21 08:40:58;;;;;;;11.50;5.50;;;20.20;88.20;;;;;;5099193;28;20042;-76
2023/05/21 08:43:26;;;;;;;7.07;5.78;;;20.30;88.70;;;;;;5117325;28;20072;-76
2023/05/21 08:45:53;;;;;;;9.73;5.90;;;20.40;87.80;;;;;;5081680;28;20069;-75
2023/05/21 08:48:22;;;;;;;6.15;5.00;;;20.50;86.50;;;;;;5117374;28;20034;-77
2023/05/21 08:50:51;;;;;;;7.43;5.00;;;20.50;87.20;;;;;;5099207;28;20031;-77
2023/05/21 08:53:17;;;;;;;9.30;5.85;;;20.60;87.00;;;;;;5098869;28;20407;-76
2023/05/21 08:55:43;;;;;;;8.77;5.40;;;20.70;86.20;;;;;;5117044;28;20028;-77
2023/05/21 08:58:09;;;;;;;7.47;5.50;;;20.70;86.00;;;;;;5099215;28;20080;-77
2023/05/21 09:00:36;;;;;;;9.68;6.80;;;20.80;87.30;;;;;;5098660;28;20036;-77
2023/05/21 09:03:06;;;;;;;7.97;5.75;;;20.90;85.70;;;;;;5098312;28;20024;-77
2023/05/21 09:05:33;;;;;;;8.98;5.75;;;20.90;84.80;;;;;;5116993;28;20028;-77
2023/05/21 09:08:05;;;;;;;10.70;6.25;;;20.90;85.60;;;;;;5098184;28;20495;-76
2023/05/21 09:10:46;;;;;;;7.93;5.93;;;20.90;85.20;;;;;;5116832;28;20059;-76
2023/05/21 09:13:13;;;;;;;11.18;6.32;;;20.90;84.90;;;;;;5098465;28;20032;-77
2023/05/21 09:15:40;;;;;;;9.63;6.05;;;21.00;85.90;;;;;;5097893;28;20031;-76
2023/05/21 09:18:06;;;;;;;8.52;6.03;;;20.90;85.40;;;;;;5098826;28;20024;-76
2023/05/21 09:20:31;;;;;;;12.45;6.22;;;21.00;85.40;;;;;;5116178;28;20062;-77
2023/05/21 09:23:02;;;;;;;11.68;6.25;;;21.00;85.70;;;;;;5098805;28;20460;-77
2023/05/21 09:25:28;;;;;;;9.90;5.43;;;21.10;85.30;;;;;;5116596;28;20499;-77
2023/05/21 09:27:57;;;;;;;7.55;5.22;;;21.20;85.60;;;;;;5097631;28;20123;-76
2023/05/21 09:30:23;;;;;;;9.50;6.35;;;21.30;84.50;;;;;;5115961;28;20027;-77
2023/05/21 09:32:56;;;;;;;10.82;6.18;;;21.40;85.00;;;;;;5116078;28;20038;-77
2023/05/21 09:35:23;;;;;;;10.15;6.07;;;21.60;84.20;;;;;;5116715;28;20035;-77
2023/05/21 09:37:51;;;;;;;9.10;6.10;;;21.70;83.80;;;;;;5097872;28;20019;-77
2023/05/21 09:40:22;;;;;;;8.18;6.55;;;21.80;84.20;;;;;;5098203;28;20087;-76
2023/05/21 09:42:49;;;;;;;10.45;6.72;;;21.90;83.70;;;;;;5115691;28;20019;-77
2023/05/21 09:45:19;;;;;;;10.32;7.00;;;22.00;82.60;;;;;;5098235;28;20039;-77
2023/05/21 09:47:46;;;;;;;9.75;5.60;;;21.90;82.50;;;;;;5115849;28;20077;-77
2023/05/21 09:50:16;;;;;;;11.13;8.18;;;22.00;83.30;;;;;;5097943;28;20468;-77
2023/05/21 09:52:42;;;;;;;11.88;8.85;;;22.00;82.20;;;;;;5097488;28;20368;-77
2023/05/21 09:55:12;;;;;;;10.48;7.35;;;22.00;82.40;;;;;;5115967;28;20028;-77
2023/05/21 09:57:48;;;;;;;11.65;8.32;;;22.00;82.00;;;;;;5097586;28;20034;-78
2023/05/21 10:00:21;;;;;;;11.38;8.15;;;21.90;82.60;;;;;;5080827;28;20467;-78
2023/05/21 10:02:59;;;;;;;11.80;8.10;;;21.90;82.80;;;;;;5096895;28;20031;-78
2023/05/21 10:05:27;;;;;;;9.73;6.70;;;22.10;83.10;;;;;;5115786;28;20048;-78
2023/05/21 10:07:58;;;;;;;9.90;6.60;;;22.40;82.40;;;;;;5097487;28;20023;-78
2023/05/21 10:10:26;;;;;;;10.88;7.20;;;22.50;80.90;;;;;;5115785;28;20034;-78
2023/05/21 10:13:02;;;;;;;11.25;7.95;;;22.70;80.70;;;;;;5097012;28;20024;-78
2023/05/21 10:15:33;;;;;;;12.25;8.77;;;22.70;80.80;;;;;;5115732;28;20019;-78
2023/05/21 10:18:01;;;;;;;14.95;8.48;;;22.70;80.80;;;;;;5115679;28;20073;-78
2023/05/21 10:20:27;;;;;;;14.73;8.90;;;22.60;80.80;;;;;;5115230;28;20035;-77
2023/05/21 10:22:54;;;;;;;10.43;7.88;;;22.60;81.50;;;;;;5115151;28;20031;-78
2023/05/21 10:25:21;;;;;;;9.57;8.18;;;22.50;80.60;;;;;;5115499;28;20020;-77
2023/05/21 10:27:48;;;;;;;10.45;8.57;;;22.70;80.90;;;;;;5115156;28;20032;-78
2023/05/21 10:30:16;;;;;;;11.35;9.25;;;22.80;80.10;;;;;;5096969;28;20081;-78
2023/05/21 10:32:41;;;;;;;15.20;9.75;;;22.70;79.90;;;;;;5114867;28;20041;-78
2023/05/21 10:35:08;;;;;;;11.10;8.63;;;22.50;80.90;;;;;;5097322;28;20122;-78
2023/05/21 10:37:35;;;;;;;8.98;7.63;;;22.30;80.80;;;;;;5096920;28;20038;-78
2023/05/21 10:40:01;;;;;;;11.68;8.95;;;22.40;81.60;;;;;;5095876;28;20031;-76
2023/05/21 10:42:29;;;;;;;9.18;7.75;;;22.60;81.70;;;;;;5096808;28;20043;-78
2023/05/21 10:45:05;;;;;;;10.60;8.05;;;22.80;82.60;;;;;;5114726;28;20028;-78
2023/05/21 10:47:52;;;;;;;12.65;10.25;;;23.00;81.40;;;;;;5114978;28;20128;-78
2023/05/21 10:50:43;;;;;;;13.18;8.48;;;23.30;79.70;;;;;;5114891;28;20076;-78
2023/05/21 10:53:16;;;;;;;12.60;9.60;;;23.30;79.50;;;;;;5114698;28;20027;-78
2023/05/21 10:56:20;;;;;;;13.95;9.95;;;23.40;79.10;;;;;;5114968;28;20031;-79
2023/05/21 10:58:58;;;;;;;11.40;9.27;;;23.50;79.30;;;;;;5051582;28;20136;-78
2023/05/21 11:01:28;;;;;;;11.05;8.45;;;23.50;79.80;;;;;;5088386;28;20085;-79
2023/05/21 11:03:54;;;;;;;15.15;9.02;;;23.70;79.00;;;;;;5114663;28;20390;-78
2023/05/21 11:06:25;;;;;;;12.27;8.73;;;23.80;78.40;;;;;;5096714;28;20111;-78
2023/05/21 11:08:54;;;;;;;9.45;8.25;;;23.90;77.00;;;;;;5114817;28;20024;-79
2023/05/21 11:11:41;;;;;;;13.10;9.30;;;23.90;78.20;;;;;;5096308;28;20031;-79
2023/05/21 11:14:34;;;;;;;10.30;8.98;;;23.80;77.60;;;;;;5103376;28;20043;-79
2023/05/21 11:17:03;;;;;;;10.45;7.50;;;23.70;77.50;;;;;;5096131;28;20024;-78
2023/05/21 11:19:46;;;;;;;10.02;8.00;;;23.80;78.10;;;;;;5114425;28;20030;-79
2023/05/21 11:22:25;;;;;;;8.32;7.43;;;24.00;78.50;;;;;;5096048;28;20495;-78
2023/05/21 11:24:52;;;;;;;11.15;8.80;;;24.00;77.10;;;;;;5114459;28;20038;-79
2023/05/21 11:27:37;;;;;;;13.23;8.93;;;24.10;77.30;;;;;;5096121;28;20467;-79
2023/05/21 11:30:06;;;;;;;10.82;8.77;;;24.00;76.70;;;;;;5114206;28;20028;-79
2023/05/21 11:32:37;;;;;;;13.35;7.63;;;24.10;78.10;;;;;;5113662;28;20470;-77
2023/05/21 11:35:02;;;;;;;10.88;8.60;;;24.20;78.20;;;;;;5114033;28;20023;-76
2023/05/21 11:37:30;;;;;;;12.10;9.02;;;24.40;76.80;;;;;;5114503;28;20037;-76
2023/05/21 11:39:57;;;;;;;12.13;8.40;;;24.50;75.60;;;;;;5095772;28;20024;-76
2023/05/21 11:42:33;;;;;;;10.52;7.95;;;24.50;76.20;;;;;;5114068;28;20036;-76
2023/05/21 11:45:01;;;;;;;10.30;8.18;;;24.40;75.90;;;;;;5095469;28;20032;-76
2023/05/21 11:47:28;;;;;;;10.32;7.68;;;24.50;75.60;;;;;;5113976;28;20042;-76
2023/05/21 11:49:55;;;;;;;11.48;8.10;;;24.70;75.70;;;;;;5114034;28;20030;-76
2023/05/21 11:52:21;;;;;;;12.23;8.00;;;24.80;76.00;;;;;;5095289;28;20600;-76
2023/05/21 11:54:54;;;;;;;12.50;7.95;;;24.80;75.30;;;;;;5095733;28;20122;-76
2023/05/21 11:57:20;;;;;;;10.98;8.57;;;24.80;75.90;;;;;;5113934;28;20019;-76
2023/05/21 11:59:48;;;;;;;12.32;8.32;;;25.00;75.60;;;;;;5113680;28;20031;-77
2023/05/21 12:02:25;;;;;;;12.02;7.57;;;25.00;73.70;;;;;;5113260;28;20103;-77
2023/05/21 12:04:51;;;;;;;10.10;7.28;;;25.00;74.50;;;;;;5113366;28;20423;-76
2023/05/21 12:07:18;;;;;;;11.50;8.43;;;25.10;75.40;;;;;;5113593;28;20076;-77
2023/05/21 12:09:49;;;;;;;11.68;8.75;;;25.20;74.00;;;;;;5113523;28;20487;-77
2023/05/21 12:12:16;;;;;;;9.88;7.57;;;25.30;73.50;;;;;;5095375;28;20047;-76
2023/05/21 12:14:47;;;;;;;11.63;7.10;;;25.10;74.20;;;;;;5078744;28;20452;-77
2023/05/21 12:17:16;;;;;;;10.20;8.38;;;25.20;73.80;;;;;;5113734;28;20047;-76
2023/05/21 12:19:42;;;;;;;9.38;7.78;;;25.30;73.70;;;;;;5113426;28;20027;-76
2023/05/21 12:22:08;;;;;;;10.48;8.30;;;25.10;74.10;;;;;;5078368;28;20471;-77
2023/05/21 12:24:36;;;;;;;10.43;7.90;;;25.00;74.70;;;;;;5095530;28;20031;-77
2023/05/21 12:27:08;;;;;;;9.43;7.80;;;25.10;75.90;;;;;;5095367;28;20028;-76
2023/05/21 12:29:38;;;;;;;9.82;6.95;;;25.10;74.50;;;;;;5113611;28;20024;-76
2023/05/21 12:32:07;;;;;;;9.65;6.75;;;25.30;75.10;;;;;;5095741;28;20122;-76
2023/05/21 12:34:42;;;;;;;13.52;8.20;;;25.40;74.30;;;;;;5078833;28;20028;-76
2023/05/21 12:37:08;;;;;;;10.23;7.97;;;25.50;73.90;;;;;;5113736;28;20024;-76
2023/05/21 12:39:38;;;;;;;10.20;8.32;;;25.50;74.60;;;;;;5095309;28;20491;-77
2023/05/21 12:42:05;;;;;;;10.48;8.00;;;25.50;74.30;;;;;;5095415;28;20472;-77
2023/05/21 12:44:31;;;;;;;9.73;7.47;;;25.60;73.90;;;;;;5095269;28;20024;-76
2023/05/21 12:46:58;;;;;;;12.63;6.93;;;25.70;73.80;;;;;;5095114;28;20055;-76
2023/05/21 12:49:34;;;;;;;8.07;6.45;;;25.90;74.20;;;;;;5113471;28;20111;-76